This is the latest recevied weather packets stored in our database for station/object YO2LDK-13. If no packets are shown the sender has not sent any weather packets the latest 1 day(s).
| Time | Temp. | Humidity | Pressure | Rain* | Wind** | Luminosity | Snow |
|---|---|---|---|---|---|---|---|
| 1778048120 | 17.78° C | 62% | 1003.7 hPa | 0 mm | - | 91 W/m² | - |
| 1778046321 | 16.67° C | 66% | 1003.7 hPa | 0 mm | - | 43 W/m² | - |
| 1778045720 | 16.11° C | 68% | 1004.1 hPa | 0 mm | - | 47 W/m² | - |
| 1778045419 | 15.56° C | 70% | 1003.7 hPa | 0 mm | - | 51 W/m² | - |
| 1778044820 | 14.44° C | 73% | 1004.1 hPa | 0 mm | - | 50 W/m² | - |
| 1778044520 | 14.44° C | 74% | 1003.7 hPa | 0 mm | - | 46 W/m² | - |
| 1778044222 | 13.89° C | 75% | 1003.7 hPa | 0 mm | - | 45 W/m² | - |
| 1778043920 | 13.33° C | 77% | 1003.7 hPa | 0 mm | - | 42 W/m² | - |
| 1778043620 | 12.78° C | 78% | 1004.1 hPa | 0 mm | - | 39 W/m² | - |
| 1778042720 | 12.22° C | 79% | 1003.7 hPa | 0 mm | - | 25 W/m² | - |
| 1778042420 | 12.22° C | 79% | 1003.7 hPa | 0 mm | - | 20 W/m² | - |
| 1778042120 | 12.22° C | 80% | 1003.7 hPa | 0 mm | - | 18 W/m² | - |
| 1778041521 | 11.67° C | 81% | 1003.7 hPa | 0 mm | - | 19 W/m² | - |
| 1778041223 | 11.67° C | 81% | 1003.7 hPa | 0 mm | - | 19 W/m² | - |
| 1778040619 | 11.11° C | 81% | 1003.4 hPa | 0 mm | - | 18 W/m² | - |
| 1778040022 | 10.56° C | 82% | 1003.4 hPa | 0 mm | - | 16 W/m² | - |
| 1778039720 | 10.56° C | 83% | 1003.4 hPa | 0 mm | - | 13 W/m² | - |
| 1778039421 | 10° C | 84% | 1003.4 hPa | 0 mm | - | 11 W/m² | - |
| 1778038819 | 10° C | 84% | 1003.4 hPa | 0 mm | - | 7 W/m² | - |
| 1778038519 | 10° C | 84% | 1003.4 hPa | 0 mm | - | 5 W/m² | - |
| 1778037925 | 10° C | 85% | 1003.4 hPa | 0 mm | - | 3 W/m² | - |
| 1778037622 | 10° C | 85% | 1003.4 hPa | 0 mm | - | 2 W/m² | - |
| 1778037323 | 10° C | 84% | 1003.4 hPa | 0 mm | - | 2 W/m² | - |
| 1778037020 | 10° C | 84% | 1003.4 hPa | 0 mm | - | 1 W/m² | - |
| 1778036720 | 10° C | 83% | 1003.4 hPa | 0 mm | - | 0 W/m² | - |
* Rain latest hour (hover to see other rain measurements)
** Current wind speed in m/s (hover to see current wind gust speed)